createdAt,value
2023-01-07T00:02:09.520Z,8.50
2023-01-07T00:04:37.493Z,8.50
2023-01-07T00:07:05.474Z,8.50
2023-01-07T00:09:34.827Z,8.40
2023-01-07T00:12:02.827Z,8.50
2023-01-07T00:14:30.781Z,8.40
2023-01-07T00:16:58.775Z,8.40
2023-01-07T00:19:26.762Z,8.50
2023-01-07T00:21:54.999Z,8.50
2023-01-07T00:24:22.980Z,8.50
2023-01-07T00:26:52.313Z,8.50
2023-01-07T00:29:21.295Z,8.50
2023-01-07T00:31:49.335Z,8.50
2023-01-07T00:34:17.722Z,8.50
2023-01-07T00:36:47.472Z,8.50
2023-01-07T00:39:17.511Z,8.40
2023-01-07T00:42:06.578Z,8.40
2023-01-07T00:44:37.774Z,8.40
2023-01-07T00:47:06.489Z,8.40
2023-01-07T00:49:34.714Z,8.30
2023-01-07T00:52:03.024Z,8.40
2023-01-07T00:54:31.104Z,8.40
2023-01-07T00:56:59.123Z,8.40
2023-01-07T00:59:27.165Z,8.50
2023-01-07T01:01:56.660Z,8.50
2023-01-07T01:04:24.795Z,8.50
2023-01-07T01:06:52.749Z,8.50
2023-01-07T01:09:22.324Z,8.60
2023-01-07T01:11:50.374Z,8.50
2023-01-07T01:14:18.460Z,8.50
2023-01-07T01:16:46.452Z,8.50
2023-01-07T01:19:16.134Z,8.40
2023-01-07T01:21:44.205Z,8.40
2023-01-07T01:24:12.222Z,8.30
2023-01-07T01:26:40.236Z,8.30
2023-01-07T01:29:08.293Z,8.30
2023-01-07T01:31:36.410Z,8.40
2023-01-07T01:34:04.463Z,8.40
2023-01-07T01:36:33.797Z,8.40
2023-01-07T01:39:02.005Z,8.50
2023-01-07T01:41:30.029Z,8.40
2023-01-07T01:43:58.357Z,8.40
2023-01-07T01:46:34.553Z,8.40
2023-01-07T01:49:06.261Z,8.30
2023-01-07T01:51:39.089Z,8.30
2023-01-07T01:54:10.807Z,8.20
2023-01-07T01:56:48.641Z,8.20
2023-01-07T01:59:21.208Z,8.20
2023-01-07T02:01:49.597Z,8.10
2023-01-07T02:04:21.050Z,8.10
2023-01-07T02:06:55.023Z,8.20
2023-01-07T02:09:23.080Z,8.30
2023-01-07T02:12:00.344Z,8.40
2023-01-07T02:14:54.970Z,8.40
2023-01-07T02:17:34.057Z,8.30
2023-01-07T02:20:17.763Z,8.30
2023-01-07T02:23:16.064Z,8.30
2023-01-07T02:26:04.536Z,8.20
2023-01-07T02:28:59.376Z,8.20
2023-01-07T02:32:01.684Z,8.20
2023-01-07T02:34:36.744Z,8.30
2023-01-07T02:37:11.916Z,8.30
2023-01-07T02:39:49.899Z,8.30
2023-01-07T02:42:27.002Z,8.40
2023-01-07T02:45:03.397Z,8.40
2023-01-07T02:47:37.904Z,8.40
2023-01-07T02:50:08.308Z,8.40
2023-01-07T02:52:37.736Z,8.30
2023-01-07T02:55:09.711Z,8.20
2023-01-07T02:58:16.193Z,8.10
2023-01-07T03:01:05.763Z,8.10
2023-01-07T03:03:45.499Z,8.10
2023-01-07T03:06:32.212Z,8.00
2023-01-07T03:09:06.953Z,8.00
2023-01-07T03:11:41.311Z,7.90
2023-01-07T03:14:15.565Z,7.90
2023-01-07T03:16:48.448Z,7.80
2023-01-07T03:19:19.250Z,7.70
2023-01-07T03:21:49.749Z,7.70
2023-01-07T03:24:19.101Z,7.70
2023-01-07T03:26:52.424Z,7.70
2023-01-07T03:29:21.558Z,7.60
2023-01-07T03:31:55.103Z,7.60
2023-01-07T03:34:26.077Z,7.60
2023-01-07T03:36:59.213Z,7.50
2023-01-07T03:39:30.467Z,7.40
2023-01-07T03:42:16.087Z,7.40
2023-01-07T03:44:45.622Z,7.40
2023-01-07T03:47:14.014Z,7.40
2023-01-07T03:49:42.049Z,7.30
2023-01-07T03:52:11.361Z,7.30
2023-01-07T03:54:39.342Z,7.30
2023-01-07T03:57:07.338Z,7.20
2023-01-07T03:59:35.292Z,7.20
2023-01-07T04:02:03.540Z,7.20
2023-01-07T04:04:32.495Z,7.20
2023-01-07T04:07:00.513Z,7.20
2023-01-07T04:09:29.883Z,7.30
2023-01-07T04:11:57.858Z,7.30
2023-01-07T04:14:25.821Z,7.30
2023-01-07T04:16:54.104Z,7.30
2023-01-07T04:19:22.860Z,7.30
2023-01-07T04:21:50.850Z,7.40
2023-01-07T04:24:18.889Z,7.40
2023-01-07T04:26:48.224Z,7.40
2023-01-07T04:29:16.370Z,7.50
2023-01-07T04:31:44.343Z,7.60
2023-01-07T04:34:12.367Z,7.60
2023-01-07T04:36:40.383Z,7.60
2023-01-07T04:39:08.509Z,7.60
2023-01-07T04:41:36.497Z,7.50
2023-01-07T04:44:06.109Z,7.50
2023-01-07T04:46:34.153Z,7.50
2023-01-07T04:49:02.202Z,7.40
2023-01-07T04:51:30.217Z,7.40
2023-01-07T04:53:58.466Z,7.30
2023-01-07T04:56:26.458Z,7.30
2023-01-07T04:58:54.598Z,7.30
2023-01-07T05:01:24.612Z,7.30
2023-01-07T05:03:52.721Z,7.20
2023-01-07T05:06:20.692Z,7.20
2023-01-07T05:08:48.665Z,7.20
2023-01-07T05:11:21.554Z,7.20
2023-01-07T05:13:50.366Z,7.20
2023-01-07T05:16:19.027Z,7.20
2023-01-07T05:18:48.404Z,7.20
2023-01-07T05:21:17.982Z,7.20
2023-01-07T05:23:45.951Z,7.20
2023-01-07T05:26:13.938Z,7.30
2023-01-07T05:28:41.935Z,7.30
2023-01-07T05:31:09.956Z,7.20
2023-01-07T05:33:38.012Z,7.20
2023-01-07T05:36:08.105Z,7.20
2023-01-07T05:38:36.084Z,7.30
2023-01-07T05:41:04.189Z,7.40
2023-01-07T05:43:32.968Z,7.50
2023-01-07T05:46:01.074Z,7.50
2023-01-07T05:48:29.180Z,7.60
2023-01-07T05:50:57.194Z,7.70
2023-01-07T05:53:26.574Z,7.80
2023-01-07T05:55:57.666Z,7.80
2023-01-07T05:58:26.089Z,7.80
2023-01-07T06:00:54.425Z,7.80
2023-01-07T06:03:22.917Z,7.80
2023-01-07T06:05:51.152Z,7.90
2023-01-07T06:08:19.127Z,7.90
2023-01-07T06:10:48.471Z,8.00
2023-01-07T06:13:16.509Z,7.90
2023-01-07T06:15:44.522Z,7.90
2023-01-07T06:18:12.538Z,7.90
2023-01-07T06:20:40.504Z,7.80
2023-01-07T06:23:10.207Z,7.70
2023-01-07T06:25:38.227Z,7.60
2023-01-07T06:28:07.689Z,7.60
2023-01-07T06:30:35.674Z,7.60
2023-01-07T06:33:05.394Z,7.50
2023-01-07T06:35:33.599Z,7.50
2023-01-07T06:38:02.144Z,7.50
2023-01-07T06:40:30.169Z,7.60
2023-01-07T06:42:58.267Z,7.70
2023-01-07T06:45:27.643Z,7.70
2023-01-07T06:47:57.360Z,7.60
2023-01-07T06:50:26.042Z,7.60
2023-01-07T06:52:54.040Z,7.70
2023-01-07T06:55:22.062Z,7.60
2023-01-07T06:57:50.011Z,7.70
2023-01-07T07:00:18.474Z,7.80
2023-01-07T07:02:47.854Z,7.90
2023-01-07T07:05:16.379Z,8.00
2023-01-07T07:07:44.367Z,8.10
2023-01-07T07:10:12.612Z,8.20
2023-01-07T07:12:40.649Z,8.00
2023-01-07T07:15:10.162Z,8.10
2023-01-07T07:17:38.121Z,8.20
2023-01-07T07:20:08.811Z,8.20
2023-01-07T07:22:36.835Z,8.20
2023-01-07T07:25:05.319Z,8.20
2023-01-07T07:27:33.325Z,8.20
2023-01-07T07:30:01.284Z,8.00
2023-01-07T07:32:29.336Z,8.10
2023-01-07T07:34:57.557Z,8.20
2023-01-07T07:37:26.926Z,8.30
2023-01-07T07:39:54.930Z,8.20
2023-01-07T07:42:22.916Z,8.10
2023-01-07T07:44:50.968Z,8.10
2023-01-07T07:47:19.805Z,8.00
2023-01-07T07:49:47.792Z,8.00
2023-01-07T07:52:15.797Z,8.10
2023-01-07T07:54:45.139Z,8.10
2023-01-07T07:57:13.169Z,8.10
2023-01-07T07:59:41.140Z,8.30
2023-01-07T08:02:12.230Z,8.00
2023-01-07T08:04:40.183Z,8.10
2023-01-07T08:07:08.205Z,8.10
2023-01-07T08:09:36.187Z,8.10
2023-01-07T08:12:06.064Z,8.10
2023-01-07T08:14:34.118Z,8.10
2023-01-07T08:17:02.138Z,8.10
2023-01-07T08:19:30.137Z,8.10
2023-01-07T08:21:58.084Z,8.00
2023-01-07T08:24:26.132Z,8.00
2023-01-07T08:26:55.746Z,8.00
2023-01-07T08:29:25.366Z,8.10
2023-01-07T08:31:53.476Z,8.10
2023-01-07T08:34:21.860Z,8.20
2023-01-07T08:36:50.766Z,8.20
2023-01-07T08:39:18.946Z,8.20
2023-01-07T08:41:46.892Z,8.20
2023-01-07T08:44:14.896Z,8.30
2023-01-07T08:46:44.265Z,8.30
2023-01-07T08:49:12.876Z,8.30
2023-01-07T08:51:40.867Z,8.40
2023-01-07T08:54:08.841Z,8.40
2023-01-07T08:56:36.816Z,8.40
2023-01-07T08:59:04.835Z,8.50
2023-01-07T09:01:33.144Z,8.50
2023-01-07T09:04:02.560Z,8.60
2023-01-07T09:06:30.530Z,8.60
2023-01-07T09:08:58.529Z,8.70
2023-01-07T09:11:26.589Z,8.60
2023-01-07T09:13:54.564Z,8.60
2023-01-07T09:16:25.166Z,8.80
2023-01-07T09:18:53.269Z,8.70
2023-01-07T09:21:22.583Z,8.80
2023-01-07T09:23:50.565Z,8.80
2023-01-07T09:26:18.599Z,8.90
2023-01-07T09:28:46.625Z,9.00
2023-01-07T09:31:14.615Z,9.10
2023-01-07T09:33:42.590Z,9.10
2023-01-07T09:36:10.644Z,9.20
2023-01-07T09:38:40.002Z,9.20
2023-01-07T09:41:20.937Z,9.20
2023-01-07T09:43:59.367Z,9.20
2023-01-07T09:46:30.366Z,9.20
2023-01-07T09:49:03.059Z,9.20
2023-01-07T09:51:36.465Z,9.20
2023-01-07T09:54:14.207Z,9.30
2023-01-07T09:56:42.320Z,9.30
2023-01-07T09:59:13.009Z,9.30
2023-01-07T10:01:45.330Z,9.30
2023-01-07T10:04:26.106Z,9.40
2023-01-07T10:07:03.391Z,9.50
2023-01-07T10:09:42.601Z,9.50
2023-01-07T10:12:21.026Z,9.50
2023-01-07T10:15:21.747Z,9.50
2023-01-07T10:18:06.886Z,9.50
2023-01-07T10:20:44.572Z,9.60
2023-01-07T10:23:15.782Z,9.60
2023-01-07T10:25:49.197Z,9.70
2023-01-07T10:28:22.986Z,9.70
2023-01-07T10:30:52.957Z,9.60
2023-01-07T10:33:25.329Z,9.60
2023-01-07T10:36:02.090Z,9.60
2023-01-07T10:38:35.172Z,9.60
2023-01-07T10:41:11.055Z,9.70
2023-01-07T10:43:56.898Z,9.80
2023-01-07T10:46:41.255Z,9.80
2023-01-07T10:49:25.364Z,9.80
2023-01-07T10:52:10.742Z,9.80
2023-01-07T10:55:05.154Z,9.90
2023-01-07T10:57:37.386Z,9.80
2023-01-07T11:00:08.924Z,10.10
2023-01-07T11:02:39.860Z,9.90
2023-01-07T11:05:08.510Z,9.90
2023-01-07T11:07:44.879Z,9.90
2023-01-07T11:10:17.849Z,10.00
2023-01-07T11:12:52.020Z,10.10
2023-01-07T11:15:25.133Z,10.50
2023-01-07T11:17:55.980Z,10.60
2023-01-07T11:20:43.801Z,10.70
2023-01-07T11:23:34.927Z,10.70
2023-01-07T11:26:17.818Z,11.20
2023-01-07T11:28:53.813Z,11.30
2023-01-07T11:31:24.114Z,11.10
2023-01-07T11:34:02.244Z,10.80
2023-01-07T11:36:42.159Z,10.70
2023-01-07T11:39:13.229Z,10.70
2023-01-07T11:41:53.786Z,10.60
2023-01-07T11:44:23.339Z,10.60
2023-01-07T11:46:51.851Z,10.80
2023-01-07T11:49:26.100Z,11.00
2023-01-07T11:51:54.316Z,11.20
2023-01-07T11:54:24.454Z,11.20
2023-01-07T11:56:55.052Z,11.20
2023-01-07T11:59:31.699Z,11.10
2023-01-07T12:02:01.034Z,11.00
2023-01-07T12:04:31.874Z,10.90
2023-01-07T12:07:02.879Z,10.80
2023-01-07T12:09:36.996Z,10.80
2023-01-07T12:12:34.705Z,10.80
2023-01-07T12:15:16.578Z,10.50
2023-01-07T12:17:46.970Z,10.60
2023-01-07T12:20:35.745Z,10.50
2023-01-07T12:23:17.936Z,10.40
2023-01-07T12:25:55.640Z,10.40
2023-01-07T12:28:36.276Z,10.30
2023-01-07T12:31:19.369Z,10.40
2023-01-07T12:34:07.703Z,10.40
2023-01-07T12:36:45.974Z,10.30
2023-01-07T12:39:20.313Z,10.30
2023-01-07T12:41:58.107Z,10.20
2023-01-07T12:44:26.328Z,10.20
2023-01-07T12:47:31.938Z,10.20
2023-01-07T12:49:59.972Z,10.20
2023-01-07T12:52:43.855Z,10.20
2023-01-07T12:55:20.911Z,10.20
2023-01-07T12:57:59.260Z,10.20
2023-01-07T13:00:31.621Z,10.10
2023-01-07T13:03:11.129Z,10.10
2023-01-07T13:05:44.784Z,10.10
2023-01-07T13:08:19.595Z,10.10
2023-01-07T13:10:52.788Z,10.10
2023-01-07T13:13:27.245Z,10.10
2023-01-07T13:15:57.150Z,10.20
2023-01-07T13:18:26.592Z,10.10
2023-01-07T13:21:02.571Z,10.10
2023-01-07T13:23:45.454Z,10.20
2023-01-07T13:26:26.949Z,10.20
2023-01-07T13:29:06.107Z,10.10
2023-01-07T13:31:45.714Z,10.10
2023-01-07T13:34:26.094Z,10.20
2023-01-07T13:37:09.284Z,10.20
2023-01-07T13:39:52.987Z,10.30
2023-01-07T13:42:34.702Z,10.20
2023-01-07T13:45:09.161Z,10.10
2023-01-07T13:47:43.991Z,10.10
2023-01-07T13:50:22.503Z,10.10
2023-01-07T13:52:59.903Z,10.00
2023-01-07T13:55:34.783Z,10.00
2023-01-07T13:58:03.677Z,10.00
2023-01-07T14:00:48.088Z,9.90
2023-01-07T14:03:36.463Z,9.90
2023-01-07T14:06:44.328Z,9.90
2023-01-07T14:09:21.180Z,9.90
2023-01-07T14:12:33.823Z,9.90
2023-01-07T14:15:25.422Z,9.90
2023-01-07T14:18:08.216Z,9.80
2023-01-07T14:20:46.732Z,9.80
2023-01-07T14:23:27.695Z,9.90
2023-01-07T14:26:09.724Z,9.80
2023-01-07T14:28:56.570Z,9.80
2023-01-07T14:31:26.989Z,9.80
2023-01-07T14:33:58.231Z,9.80
2023-01-07T14:36:46.747Z,9.80
2023-01-07T14:39:43.027Z,9.80
2023-01-07T14:42:45.667Z,9.70
2023-01-07T14:45:50.424Z,9.70
2023-01-07T14:48:35.036Z,9.60
2023-01-07T14:51:29.991Z,9.60
2023-01-07T14:54:31.775Z,9.50
2023-01-07T14:57:10.876Z,9.50
2023-01-07T14:59:59.325Z,9.40
2023-01-07T15:02:52.305Z,9.40
2023-01-07T15:05:43.904Z,9.40
2023-01-07T15:08:35.928Z,9.40
2023-01-07T15:11:25.770Z,9.40
2023-01-07T15:14:16.715Z,9.30
2023-01-07T15:16:50.208Z,9.20
2023-01-07T15:19:19.268Z,9.10
2023-01-07T15:21:56.572Z,9.00
2023-01-07T15:24:33.918Z,8.90
2023-01-07T15:27:06.768Z,8.80
2023-01-07T15:29:42.755Z,8.90
2023-01-07T15:32:22.991Z,8.80
2023-01-07T15:34:51.123Z,8.70
2023-01-07T15:37:20.073Z,8.80
2023-01-07T15:39:52.156Z,8.80
2023-01-07T15:42:23.076Z,8.80
2023-01-07T15:44:54.521Z,8.70
2023-01-07T15:47:34.587Z,8.70
2023-01-07T15:50:27.255Z,8.80
2023-01-07T15:52:56.611Z,8.80
2023-01-07T15:55:28.215Z,8.80
2023-01-07T15:58:03.350Z,8.70
2023-01-07T16:00:31.554Z,8.70
2023-01-07T16:03:01.817Z,8.70
2023-01-07T16:05:30.113Z,8.70
2023-01-07T16:07:59.353Z,8.60
2023-01-07T16:10:30.334Z,8.50
2023-01-07T16:13:01.189Z,8.60
2023-01-07T16:15:32.001Z,8.40
2023-01-07T16:18:02.915Z,8.30
2023-01-07T16:20:34.189Z,8.40
2023-01-07T16:23:19.849Z,8.30
2023-01-07T16:25:50.845Z,8.30
2023-01-07T16:28:21.927Z,8.40
2023-01-07T16:30:53.848Z,8.30
2023-01-07T16:33:26.185Z,8.20
2023-01-07T16:35:57.225Z,8.10
2023-01-07T16:38:26.817Z,8.10
2023-01-07T16:40:55.146Z,8.10
2023-01-07T16:43:42.826Z,8.10
2023-01-07T16:46:20.365Z,8.10
2023-01-07T16:49:10.184Z,8.00
2023-01-07T16:51:40.504Z,8.00
2023-01-07T16:54:34.354Z,7.90
2023-01-07T16:57:04.301Z,7.80
2023-01-07T16:59:33.991Z,7.80
2023-01-07T17:02:13.180Z,7.80
2023-01-07T17:04:42.615Z,7.70
2023-01-07T17:07:22.355Z,7.70
2023-01-07T17:09:54.491Z,7.60
2023-01-07T17:12:29.855Z,7.70
2023-01-07T17:14:57.819Z,7.60
2023-01-07T17:17:31.614Z,7.60
2023-01-07T17:20:17.290Z,7.60
2023-01-07T17:22:45.698Z,7.70
2023-01-07T17:25:15.281Z,7.60
2023-01-07T17:27:47.375Z,7.50
2023-01-07T17:30:18.118Z,7.60
2023-01-07T17:32:47.904Z,7.60
2023-01-07T17:35:22.065Z,7.60
2023-01-07T17:37:52.585Z,7.60
2023-01-07T17:40:21.272Z,7.60
2023-01-07T17:43:08.631Z,7.40
2023-01-07T17:45:37.605Z,7.50
2023-01-07T17:48:14.249Z,7.40
2023-01-07T17:50:44.185Z,7.30
2023-01-07T17:53:23.277Z,7.20
2023-01-07T17:55:51.355Z,7.30
2023-01-07T17:58:27.913Z,7.10
2023-01-07T18:00:56.362Z,7.10
2023-01-07T18:03:24.655Z,7.10
2023-01-07T18:05:54.394Z,7.10
2023-01-07T18:08:22.377Z,7.00
2023-01-07T18:11:09.651Z,7.00
2023-01-07T18:13:37.937Z,7.10
2023-01-07T18:16:06.959Z,7.00
2023-01-07T18:18:34.977Z,6.90
2023-01-07T18:21:04.331Z,7.00
2023-01-07T18:23:32.340Z,7.00
2023-01-07T18:26:00.341Z,6.80
2023-01-07T18:28:28.381Z,6.90
2023-01-07T18:30:56.418Z,6.80
2023-01-07T18:33:24.435Z,6.80
2023-01-07T18:35:52.400Z,6.80
2023-01-07T18:38:21.796Z,6.80
2023-01-07T18:40:49.906Z,6.70
2023-01-07T18:43:19.635Z,6.70
2023-01-07T18:45:48.413Z,6.70
2023-01-07T18:48:17.995Z,6.60
2023-01-07T18:50:47.581Z,6.70
2023-01-07T18:53:16.264Z,6.50
2023-01-07T18:55:46.353Z,6.50
2023-01-07T18:58:15.325Z,6.40
2023-01-07T19:00:43.904Z,6.40
2023-01-07T19:03:14.015Z,6.40
2023-01-07T19:05:42.129Z,6.40
2023-01-07T19:08:10.136Z,6.40
2023-01-07T19:10:42.581Z,6.40
2023-01-07T19:13:11.923Z,6.20
2023-01-07T19:15:41.397Z,6.10
2023-01-07T19:18:09.470Z,5.90
2023-01-07T19:20:37.650Z,5.90
2023-01-07T19:23:05.608Z,6.00
2023-01-07T19:25:33.681Z,5.90
2023-01-07T19:28:01.661Z,5.70
2023-01-07T19:30:31.006Z,5.70
2023-01-07T19:33:01.006Z,5.60
2023-01-07T19:35:29.020Z,5.70
2023-01-07T19:37:57.055Z,5.60
2023-01-07T19:40:25.058Z,5.60
2023-01-07T19:42:53.046Z,5.60
2023-01-07T19:45:21.008Z,5.40
2023-01-07T19:47:51.237Z,5.40
2023-01-07T19:50:19.209Z,5.60
2023-01-07T19:52:47.173Z,5.60
2023-01-07T19:55:15.620Z,5.60
2023-01-07T19:57:43.622Z,5.60
2023-01-07T20:00:12.666Z,5.50
2023-01-07T20:02:40.721Z,5.60
2023-01-07T20:05:10.619Z,5.50
2023-01-07T20:07:38.593Z,5.40
2023-01-07T20:10:07.301Z,5.50
2023-01-07T20:12:35.289Z,5.50
2023-01-07T20:15:03.303Z,5.60
2023-01-07T20:17:31.416Z,5.60
2023-01-07T20:19:59.419Z,5.60
2023-01-07T20:22:28.761Z,5.50
2023-01-07T20:24:56.719Z,5.40
2023-01-07T20:27:24.726Z,5.30
2023-01-07T20:29:52.716Z,5.40
2023-01-07T20:32:20.748Z,5.40
2023-01-07T20:34:49.257Z,5.30
2023-01-07T20:37:17.249Z,5.10
2023-01-07T20:39:46.556Z,5.10
2023-01-07T20:42:14.531Z,5.00
2023-01-07T20:44:43.088Z,5.00
2023-01-07T20:47:11.049Z,4.80
2023-01-07T20:49:39.023Z,4.70
2023-01-07T20:52:07.162Z,4.60
2023-01-07T20:54:35.151Z,4.60
2023-01-07T20:57:04.800Z,4.70
2023-01-07T20:59:32.953Z,4.70
2023-01-07T21:02:01.089Z,4.70
2023-01-07T21:04:29.766Z,4.60
2023-01-07T21:06:57.749Z,4.70
2023-01-07T21:09:25.763Z,4.60
2023-01-07T21:11:53.722Z,4.70
2023-01-07T21:14:23.060Z,4.60
2023-01-07T21:16:51.111Z,4.50
2023-01-07T21:19:19.409Z,4.50
2023-01-07T21:21:48.653Z,4.50
2023-01-07T21:24:17.522Z,4.60
2023-01-07T21:26:45.575Z,4.70
2023-01-07T21:29:14.056Z,4.80
2023-01-07T21:31:45.145Z,4.70
2023-01-07T21:34:13.588Z,4.80
2023-01-07T21:36:42.913Z,4.90
2023-01-07T21:39:13.532Z,5.10
2023-01-07T21:41:41.623Z,5.20
2023-01-07T21:44:11.944Z,5.20
2023-01-07T21:46:40.152Z,5.50
2023-01-07T21:49:09.610Z,5.40
2023-01-07T21:51:37.592Z,5.50
2023-01-07T21:54:05.635Z,5.50
2023-01-07T21:56:33.632Z,5.30
2023-01-07T21:59:01.740Z,5.20
2023-01-07T22:01:30.104Z,5.10
2023-01-07T22:03:59.900Z,5.00
2023-01-07T22:06:31.041Z,5.10
2023-01-07T22:09:00.534Z,5.10
2023-01-07T22:11:29.075Z,5.00
2023-01-07T22:13:59.047Z,5.00
2023-01-07T22:16:29.073Z,5.20
2023-01-07T22:18:58.149Z,5.20
2023-01-07T22:21:26.287Z,5.20
2023-01-07T22:23:55.675Z,5.20
2023-01-07T22:26:24.096Z,5.10
2023-01-07T22:28:55.116Z,5.00
2023-01-07T22:31:24.667Z,5.00
2023-01-07T22:33:53.771Z,5.10
2023-01-07T22:36:27.235Z,5.20
2023-01-07T22:38:58.343Z,5.40
2023-01-07T22:41:28.640Z,5.50
2023-01-07T22:43:57.233Z,5.70
2023-01-07T22:46:27.733Z,6.00
2023-01-07T22:48:55.868Z,5.90
2023-01-07T22:51:28.422Z,6.00
2023-01-07T22:54:00.339Z,6.10
2023-01-07T22:56:28.964Z,6.20
2023-01-07T22:58:56.976Z,6.40
2023-01-07T23:01:24.974Z,6.50
2023-01-07T23:03:53.088Z,6.60
2023-01-07T23:06:21.106Z,6.60
2023-01-07T23:08:49.341Z,6.50
2023-01-07T23:11:32.585Z,6.30
2023-01-07T23:14:00.674Z,6.30
2023-01-07T23:16:28.754Z,6.30
2023-01-07T23:18:56.792Z,6.40
2023-01-07T23:21:24.790Z,6.50
2023-01-07T23:23:52.778Z,6.60
2023-01-07T23:26:22.113Z,6.60
2023-01-07T23:28:50.119Z,6.50
2023-01-07T23:31:18.217Z,6.50
2023-01-07T23:33:46.213Z,6.50
2023-01-07T23:36:14.240Z,6.40
2023-01-07T23:38:42.213Z,6.40
2023-01-07T23:41:12.098Z,6.30
2023-01-07T23:43:41.464Z,6.40
2023-01-07T23:46:09.793Z,6.50
2023-01-07T23:48:39.147Z,6.60
2023-01-07T23:51:08.857Z,6.70
2023-01-07T23:53:36.924Z,6.60
2023-01-07T23:56:05.814Z,6.50
2023-01-07T23:58:34.967Z,6.50
